Time,TemperatureF,DewpointF,PressureIn,WindDirection,WindDirectionDegrees,WindSpeedMPH,WindSpeedGustMPH,Humidity,HourlyPrecipIn,Conditions,Clouds,dailyrainin,SoftwareType,DateUTC
2013-08-24 00:03:00,56.7,52.5,29.76,West,261,0.0,0.0,86,0.00,,,0.00,meteohub,2013-08-24 07:03:00,
2013-08-24 00:08:00,56.7,52.5,29.76,West,261,0.0,0.0,86,0.00,,,0.00,meteohub,2013-08-24 07:08:00,
2013-08-24 00:13:00,56.7,52.5,29.76,West,261,0.0,0.0,86,0.00,,,0.00,meteohub,2013-08-24 07:13:00,
2013-08-24 00:18:00,56.7,52.2,29.76,West,261,0.0,0.0,85,0.00,,,0.00,meteohub,2013-08-24 07:18:00,
2013-08-24 00:24:00,56.5,52.3,29.76,West,261,0.0,0.0,86,0.00,,,0.00,meteohub,2013-08-24 07:24:00,
2013-08-24 00:29:00,56.3,52.2,29.76,West,261,0.0,0.0,86,0.00,,,0.00,meteohub,2013-08-24 07:29:00,
2013-08-24 00:34:00,56.1,52.0,29.76,West,261,0.0,0.0,86,0.00,,,0.00,meteohub,2013-08-24 07:34:00,
2013-08-24 00:39:00,55.9,52.5,29.76,West,261,0.0,0.0,88,0.00,,,0.00,meteohub,2013-08-24 07:39:00,
2013-08-24 00:44:00,56.1,52.3,29.76,West,261,0.0,1.0,87,0.00,,,0.00,meteohub,2013-08-24 07:44:00,
2013-08-24 00:49:00,56.1,52.3,29.76,West,261,0.0,1.0,87,0.00,,,0.00,meteohub,2013-08-24 07:49:00,
2013-08-24 00:54:00,56.1,52.3,29.76,West,261,0.0,1.0,87,0.00,,,0.00,meteohub,2013-08-24 07:54:00,
2013-08-24 00:59:00,56.1,52.3,29.76,West,261,0.0,1.0,87,0.00,,,0.00,meteohub,2013-08-24 07:59:00,
2013-08-24 01:04:00,55.9,52.2,29.76,West,261,1.0,1.0,87,0.00,,,0.00,meteohub,2013-08-24 08:04:00,
2013-08-24 01:09:00,55.9,52.2,29.76,West,261,0.0,0.0,87,0.00,,,0.00,meteohub,2013-08-24 08:09:00,
2013-08-24 01:14:00,55.8,52.0,29.76,West,261,0.0,1.0,87,0.00,,,0.00,meteohub,2013-08-24 08:14:00,
2013-08-24 01:19:00,55.2,51.4,29.76,West,261,0.0,1.0,87,0.00,,,0.00,meteohub,2013-08-24 08:19:00,
2013-08-24 01:24:00,55.0,51.3,29.76,West,261,0.0,1.0,87,0.00,,,0.00,meteohub,2013-08-24 08:24:00,
2013-08-24 01:29:00,54.9,51.4,29.76,West,261,0.0,1.0,88,0.00,,,0.00,meteohub,2013-08-24 08:29:00,
2013-08-24 01:34:00,54.9,51.6,29.76,West,261,0.0,0.0,89,0.00,,,0.00,meteohub,2013-08-24 08:34:00,
2013-08-24 01:39:00,55.0,51.8,29.76,West,261,0.0,1.0,89,0.00,,,0.00,meteohub,2013-08-24 08:39:00,
2013-08-24 01:44:00,55.0,51.8,29.76,West,261,0.0,1.0,89,0.00,,,0.00,meteohub,2013-08-24 08:44:00,
2013-08-24 01:49:00,54.9,51.4,29.76,West,261,0.0,1.0,88,0.00,,,0.00,meteohub,2013-08-24 08:49:00,
2013-08-24 01:54:00,54.9,51.4,29.76,West,261,0.0,0.0,88,0.00,,,0.00,meteohub,2013-08-24 08:54:00,
2013-08-24 01:59:00,54.5,51.1,29.76,West,261,0.0,0.0,88,0.00,,,0.00,meteohub,2013-08-24 08:59:00,
2013-08-24 02:05:00,54.3,51.1,29.76,West,261,0.0,0.0,89,0.00,,,0.00,meteohub,2013-08-24 09:05:00,
2013-08-24 02:10:00,53.8,50.4,29.76,West,261,0.0,1.0,88,0.00,,,0.00,meteohub,2013-08-24 09:10:00,
2013-08-24 02:15:00,53.8,50.9,29.76,West,261,0.0,1.0,90,0.00,,,0.00,meteohub,2013-08-24 09:15:00,
2013-08-24 02:20:00,54.0,51.1,29.76,West,261,0.0,1.0,90,0.00,,,0.00,meteohub,2013-08-24 09:20:00,
2013-08-24 02:25:00,54.0,51.1,29.76,West,261,0.0,1.0,90,0.00,,,0.00,meteohub,2013-08-24 09:25:00,
2013-08-24 02:30:00,54.0,51.1,29.76,West,261,0.0,0.0,90,0.00,,,0.00,meteohub,2013-08-24 09:30:00,
2013-08-24 02:35:00,53.8,51.3,29.76,West,261,0.0,0.0,91,0.00,,,0.00,meteohub,2013-08-24 09:35:00,
2013-08-24 02:40:00,53.8,51.3,29.77,West,261,0.0,0.0,91,0.00,,,0.00,meteohub,2013-08-24 09:40:00,
2013-08-24 02:45:00,53.8,51.3,29.77,West,261,0.0,0.0,91,0.00,,,0.00,meteohub,2013-08-24 09:45:00,
2013-08-24 02:50:00,53.6,51.1,29.77,West,261,0.0,0.0,91,0.00,,,0.00,meteohub,2013-08-24 09:50:00,
2013-08-24 02:55:00,53.8,50.9,29.77,West,261,0.0,1.0,90,0.00,,,0.00,meteohub,2013-08-24 09:55:00,
2013-08-24 03:00:00,53.2,50.4,29.77,West,261,0.0,1.0,90,0.00,,,0.00,meteohub,2013-08-24 10:00:00,
2013-08-24 03:05:00,53.1,50.2,29.77,West,261,0.0,0.0,90,0.00,,,0.00,meteohub,2013-08-24 10:05:00,
2013-08-24 03:10:00,53.1,50.7,29.77,West,261,0.0,0.0,92,0.00,,,0.00,meteohub,2013-08-24 10:10:00,
2013-08-24 03:15:00,53.4,51.1,29.77,West,261,0.0,0.0,92,0.00,,,0.00,meteohub,2013-08-24 10:15:00,
2013-08-24 03:20:00,53.4,50.9,29.77,West,261,0.0,0.0,91,0.00,,,0.00,meteohub,2013-08-24 10:20:00,
2013-08-24 03:26:00,53.2,50.7,29.77,West,261,0.0,0.0,91,0.00,,,0.00,meteohub,2013-08-24 10:26:00,
2013-08-24 03:31:00,53.2,50.4,29.77,West,261,0.0,0.0,90,0.00,,,0.00,meteohub,2013-08-24 10:31:00,
2013-08-24 03:36:00,53.1,50.5,29.77,West,261,0.0,0.0,91,0.00,,,0.00,meteohub,2013-08-24 10:36:00,
2013-08-24 03:41:00,52.9,50.0,29.77,West,261,0.0,0.0,90,0.00,,,0.00,meteohub,2013-08-24 10:41:00,
2013-08-24 03:46:00,52.5,50.0,29.77,West,261,0.0,0.0,91,0.00,,,0.00,meteohub,2013-08-24 10:46:00,
2013-08-24 03:51:00,52.3,49.8,29.77,West,261,0.0,0.0,91,0.00,,,0.00,meteohub,2013-08-24 10:51:00,
2013-08-24 03:56:00,52.7,50.4,29.77,West,261,0.0,0.0,92,0.00,,,0.00,meteohub,2013-08-24 10:56:00,
2013-08-24 04:01:00,52.9,50.4,29.77,West,261,0.0,1.0,91,0.00,,,0.00,meteohub,2013-08-24 11:01:00,
2013-08-24 04:06:00,52.5,50.0,29.77,West,261,0.0,1.0,91,0.00,,,0.00,meteohub,2013-08-24 11:06:00,
2013-08-24 04:11:00,52.5,50.2,29.77,West,261,0.0,1.0,92,0.00,,,0.00,meteohub,2013-08-24 11:11:00,
2013-08-24 04:16:00,52.3,49.8,29.77,West,261,0.0,1.0,91,0.00,,,0.00,meteohub,2013-08-24 11:16:00,
2013-08-24 04:21:00,52.0,49.5,29.77,West,261,0.0,1.0,91,0.00,,,0.00,meteohub,2013-08-24 11:21:00,
2013-08-24 04:26:00,52.0,49.5,29.77,West,261,0.0,1.0,91,0.00,,,0.00,meteohub,2013-08-24 11:26:00,
2013-08-24 04:31:00,51.8,49.6,29.77,West,261,0.0,1.0,92,0.00,,,0.00,meteohub,2013-08-24 11:31:00,
2013-08-24 04:36:00,52.0,50.0,29.77,West,261,0.0,1.0,93,0.00,,,0.00,meteohub,2013-08-24 11:36:00,
2013-08-24 04:41:00,52.2,49.8,29.77,West,261,0.0,1.0,92,0.00,,,0.00,meteohub,2013-08-24 11:41:00,
2013-08-24 04:46:00,52.0,49.6,29.77,West,261,0.0,1.0,92,0.00,,,0.00,meteohub,2013-08-24 11:46:00,
2013-08-24 04:51:00,52.0,49.6,29.77,West,261,0.0,0.0,92,0.00,,,0.00,meteohub,2013-08-24 11:51:00,
2013-08-24 04:56:00,52.0,49.6,29.77,West,261,0.0,0.0,92,0.00,,,0.00,meteohub,2013-08-24 11:56:00,
2013-08-24 05:01:00,51.8,49.3,29.77,West,261,0.0,1.0,91,0.00,,,0.00,meteohub,2013-08-24 12:01:00,
2013-08-24 05:06:00,51.6,49.5,29.77,West,261,0.0,1.0,92,0.00,,,0.00,meteohub,2013-08-24 12:06:00,
2013-08-24 05:11:00,51.6,49.1,29.77,West,261,0.0,1.0,91,0.00,,,0.00,meteohub,2013-08-24 12:11:00,
2013-08-24 05:16:00,51.6,49.5,29.77,West,262,0.0,0.0,92,0.00,,,0.00,meteohub,2013-08-24 12:16:00,
2013-08-24 05:22:00,51.4,48.9,29.77,West,262,0.0,0.0,91,0.00,,,0.00,meteohub,2013-08-24 12:22:00,
2013-08-24 05:28:00,51.6,49.5,29.77,West,262,0.0,0.0,92,0.00,,,0.00,meteohub,2013-08-24 12:28:00,
2013-08-24 05:33:00,51.6,49.5,29.77,West,263,0.0,1.0,92,0.00,,,0.00,meteohub,2013-08-24 12:33:00,
2013-08-24 05:38:00,51.6,49.5,29.77,West,262,0.0,1.0,92,0.00,,,0.00,meteohub,2013-08-24 12:38:00,
2013-08-24 05:43:00,51.6,49.1,29.77,West,263,0.0,0.0,91,0.00,,,0.00,meteohub,2013-08-24 12:43:00,
2013-08-24 05:48:00,51.4,49.3,29.77,West,263,0.0,0.0,92,0.00,,,0.00,meteohub,2013-08-24 12:48:00,
2013-08-24 05:53:00,51.6,49.6,29.78,West,262,0.0,0.0,93,0.00,,,0.00,meteohub,2013-08-24 12:53:00,
2013-08-24 05:58:00,51.3,49.1,29.78,West,262,0.0,0.0,92,0.00,,,0.00,meteohub,2013-08-24 12:58:00,
2013-08-24 06:04:00,51.1,48.9,29.78,West,263,0.0,0.0,92,0.00,,,0.00,meteohub,2013-08-24 13:04:00,
2013-08-24 06:09:00,50.9,48.7,29.78,West,263,0.0,1.0,92,0.00,,,0.00,meteohub,2013-08-24 13:09:00,
2013-08-24 06:14:00,50.7,48.6,29.78,West,263,0.0,1.0,92,0.00,,,0.00,meteohub,2013-08-24 13:14:00,
2013-08-24 06:19:00,50.7,48.6,29.78,West,262,0.0,1.0,92,0.00,,,0.00,meteohub,2013-08-24 13:19:00,
2013-08-24 06:24:00,50.7,48.7,29.78,West,263,0.0,1.0,93,0.00,,,0.00,meteohub,2013-08-24 13:24:00,
2013-08-24 06:29:00,50.7,48.6,29.78,West,262,1.0,1.0,92,0.00,,,0.00,meteohub,2013-08-24 13:29:00,
2013-08-24 06:34:00,50.5,48.4,29.78,West,262,0.0,1.0,92,0.00,,,0.00,meteohub,2013-08-24 13:34:00,
2013-08-24 06:39:00,50.4,48.2,29.79,West,263,0.0,1.0,92,0.00,,,0.00,meteohub,2013-08-24 13:39:00,
2013-08-24 06:44:00,50.4,48.4,29.79,West,262,0.0,1.0,93,0.00,,,0.00,meteohub,2013-08-24 13:44:00,
2013-08-24 06:49:00,50.4,48.4,29.79,West,263,0.0,1.0,93,0.00,,,0.00,meteohub,2013-08-24 13:49:00,
2013-08-24 06:54:00,50.4,48.4,29.79,West,263,0.0,0.0,93,0.00,,,0.00,meteohub,2013-08-24 13:54:00,
2013-08-24 06:59:00,50.4,48.4,29.79,West,262,0.0,0.0,93,0.00,,,0.00,meteohub,2013-08-24 13:59:00,
2013-08-24 07:04:00,50.4,48.4,29.79,West,263,0.0,0.0,93,0.00,,,0.00,meteohub,2013-08-24 14:04:00,
2013-08-24 07:09:00,50.5,48.6,29.80,West,262,0.0,0.0,93,0.00,,,0.00,meteohub,2013-08-24 14:09:00,
2013-08-24 07:14:00,50.4,48.4,29.80,West,263,0.0,0.0,93,0.00,,,0.00,meteohub,2013-08-24 14:14:00,
2013-08-24 07:19:00,51.3,49.6,29.80,West,262,0.0,0.0,94,0.00,,,0.00,meteohub,2013-08-24 14:19:00,
2013-08-24 07:24:00,52.3,50.7,29.80,West,263,0.0,0.0,94,0.00,,,0.00,meteohub,2013-08-24 14:24:00,
2013-08-24 07:30:00,54.0,52.0,29.80,West,263,0.0,0.0,93,0.00,,,0.00,meteohub,2013-08-24 14:30:00,
2013-08-24 07:35:00,55.8,53.2,29.80,South,190,1.0,0.0,91,0.00,,,0.00,meteohub,2013-08-24 14:35:00,
2013-08-24 07:40:00,55.9,51.8,29.80,South,190,0.0,1.0,86,0.00,,,0.00,meteohub,2013-08-24 14:40:00,
2013-08-24 07:45:00,56.7,51.8,29.80,South,190,0.0,1.0,84,0.00,,,0.00,meteohub,2013-08-24 14:45:00,
2013-08-24 07:50:00,57.4,52.5,29.80,South,190,0.0,1.0,84,0.00,,,0.00,meteohub,2013-08-24 14:50:00,
2013-08-24 07:55:00,58.3,53.1,29.80,South,190,0.0,1.0,83,0.00,,,0.00,meteohub,2013-08-24 14:55:00,
2013-08-24 08:00:00,58.6,52.9,29.80,South,190,0.0,1.0,81,0.00,,,0.00,meteohub,2013-08-24 15:00:00,
2013-08-24 08:05:00,58.1,52.3,29.80,South,190,0.0,1.0,81,0.00,,,0.00,meteohub,2013-08-24 15:05:00,
2013-08-24 08:10:00,58.6,53.8,29.80,South,190,0.0,0.0,84,0.00,,,0.00,meteohub,2013-08-24 15:10:00,
2013-08-24 08:15:00,59.5,53.4,29.80,South,186,0.0,0.0,80,0.00,,,0.00,meteohub,2013-08-24 15:15:00,
2013-08-24 08:21:00,59.9,53.4,29.80,South,187,0.0,0.0,79,0.00,,,0.00,meteohub,2013-08-24 15:21:00,
2013-08-24 08:26:00,60.4,54.3,29.81,SE,134,0.0,0.0,80,0.00,,,0.00,meteohub,2013-08-24 15:26:00,
2013-08-24 08:31:00,61.2,54.7,29.81,South,191,0.0,0.0,79,0.00,,,0.00,meteohub,2013-08-24 15:31:00,
2013-08-24 08:36:00,61.9,54.9,29.81,South,190,0.0,0.0,78,0.00,,,0.00,meteohub,2013-08-24 15:36:00,
2013-08-24 08:41:00,62.1,54.7,29.81,South,175,1.0,2.0,77,0.00,,,0.00,meteohub,2013-08-24 15:41:00,
2013-08-24 08:46:00,61.0,54.1,29.81,East,91,1.0,4.0,78,0.00,,,0.00,meteohub,2013-08-24 15:46:00,
2013-08-24 08:51:00,60.8,54.3,29.80,SW,233,1.0,4.0,79,0.00,,,0.00,meteohub,2013-08-24 15:51:00,
2013-08-24 08:56:00,60.3,54.3,29.80,South,171,2.0,3.0,81,0.00,,,0.00,meteohub,2013-08-24 15:56:00,
2013-08-24 09:01:00,60.4,54.5,29.80,SSW,211,2.0,3.0,81,0.00,,,0.00,meteohub,2013-08-24 16:01:00,
2013-08-24 09:06:00,61.0,54.7,29.80,SSW,202,2.0,4.0,80,0.00,,,0.00,meteohub,2013-08-24 16:06:00,
2013-08-24 09:11:00,61.7,55.4,29.80,SW,223,1.0,4.0,80,0.00,,,0.00,meteohub,2013-08-24 16:11:00,
2013-08-24 09:16:00,62.2,54.5,29.80,ESE,111,1.0,4.0,76,0.00,,,0.00,meteohub,2013-08-24 16:16:00,
2013-08-24 09:21:00,62.2,54.9,29.80,SW,233,1.0,2.0,77,0.00,,,0.00,meteohub,2013-08-24 16:21:00,
2013-08-24 09:26:00,62.1,55.0,29.80,SE,146,1.0,3.0,78,0.00,,,0.00,meteohub,2013-08-24 16:26:00,
2013-08-24 09:31:00,62.4,55.0,29.80,SSE,152,1.0,3.0,77,0.00,,,0.00,meteohub,2013-08-24 16:31:00,
2013-08-24 09:37:00,63.7,55.6,29.81,SE,141,2.0,3.0,75,0.00,,,0.00,meteohub,2013-08-24 16:37:00,
2013-08-24 09:42:00,64.4,55.9,29.81,SSW,211,3.0,4.0,74,0.00,,,0.00,meteohub,2013-08-24 16:42:00,
2013-08-24 09:47:00,64.8,55.9,29.81,SW,235,5.0,5.0,73,0.00,,,0.00,meteohub,2013-08-24 16:47:00,
2013-08-24 09:52:00,64.6,55.8,29.81,SSW,206,3.0,5.0,73,0.00,,,0.00,meteohub,2013-08-24 16:52:00,
2013-08-24 09:57:00,64.9,55.8,29.81,SW,214,2.0,5.0,72,0.00,,,0.00,meteohub,2013-08-24 16:57:00,
2013-08-24 10:02:00,65.1,55.9,29.81,South,190,1.0,5.0,72,0.00,,,0.00,meteohub,2013-08-24 17:02:00,
2013-08-24 10:07:00,65.8,55.8,29.82,WNW,286,3.0,6.0,70,0.00,,,0.00,meteohub,2013-08-24 17:07:00,
2013-08-24 10:12:00,65.7,55.6,29.82,SSW,198,2.0,5.0,70,0.00,,,0.00,meteohub,2013-08-24 17:12:00,
2013-08-24 10:17:00,66.4,55.9,29.82,SSW,202,3.0,5.0,69,0.00,,,0.00,meteohub,2013-08-24 17:17:00,
2013-08-24 10:22:00,66.7,55.4,29.82,SSE,161,1.0,6.0,67,0.00,,,0.00,meteohub,2013-08-24 17:22:00,
2013-08-24 10:27:00,66.9,54.9,29.82,SSW,192,0.0,6.0,65,0.00,,,0.00,meteohub,2013-08-24 17:27:00,
2013-08-24 10:32:00,67.5,55.2,29.82,SW,233,2.0,4.0,65,0.00,,,0.00,meteohub,2013-08-24 17:32:00,
2013-08-24 10:37:00,67.6,55.4,29.82,SW,223,1.0,4.0,65,0.00,,,0.00,meteohub,2013-08-24 17:37:00,
2013-08-24 10:42:00,68.2,55.0,29.82,SSW,200,2.0,5.0,63,0.00,,,0.00,meteohub,2013-08-24 17:42:00,
2013-08-24 10:47:00,68.7,55.6,29.82,SSW,192,2.0,5.0,63,0.00,,,0.00,meteohub,2013-08-24 17:47:00,
2013-08-24 10:52:00,69.4,55.4,29.83,SE,146,3.0,5.0,61,0.00,,,0.00,meteohub,2013-08-24 17:52:00,
2013-08-24 10:57:00,70.2,55.2,29.83,NE,47,0.0,5.0,59,0.00,,,0.00,meteohub,2013-08-24 17:57:00,
2013-08-24 11:02:00,70.7,54.7,29.83,SSE,149,1.0,5.0,57,0.00,,,0.00,meteohub,2013-08-24 18:02:00,
2013-08-24 11:07:00,70.5,54.5,29.82,SSW,198,0.0,3.0,57,0.00,,,0.00,meteohub,2013-08-24 18:07:00,
2013-08-24 11:12:00,70.9,54.0,29.82,ESE,104,3.0,5.0,55,0.00,,,0.00,meteohub,2013-08-24 18:12:00,
2013-08-24 11:17:00,71.2,54.3,29.82,SSW,206,0.0,5.0,55,0.00,,,0.00,meteohub,2013-08-24 18:17:00,
2013-08-24 11:22:00,72.5,54.3,29.82,SSE,159,1.0,5.0,53,0.00,,,0.00,meteohub,2013-08-24 18:22:00,
2013-08-24 11:27:00,72.9,54.1,29.82,WNW,299,3.0,4.0,52,0.00,,,0.00,meteohub,2013-08-24 18:27:00,
2013-08-24 11:32:00,72.9,53.1,29.82,SSW,205,3.0,4.0,50,0.00,,,0.00,meteohub,2013-08-24 18:32:00,
2013-08-24 11:37:00,73.8,54.0,29.81,SE,130,3.0,5.0,50,0.00,,,0.00,meteohub,2013-08-24 18:37:00,
2013-08-24 11:42:00,74.1,53.8,29.81,East,100,3.0,5.0,49,0.00,,,0.00,meteohub,2013-08-24 18:42:00,
2013-08-24 11:47:00,74.1,54.3,29.81,NE,39,1.0,4.0,50,0.00,,,0.00,meteohub,2013-08-24 18:47:00,
2013-08-24 11:52:00,74.7,54.3,29.81,SSE,153,1.0,4.0,49,0.00,,,0.00,meteohub,2013-08-24 18:52:00,
2013-08-24 11:58:00,75.4,54.9,29.81,East,81,1.0,4.0,49,0.00,,,0.00,meteohub,2013-08-24 18:58:00,
2013-08-24 12:03:00,76.5,55.4,29.81,SSE,165,0.0,3.0,48,0.00,,,0.00,meteohub,2013-08-24 19:03:00,
2013-08-24 12:08:00,76.8,55.0,29.80,East,96,2.0,4.0,47,0.00,,,0.00,meteohub,2013-08-24 19:08:00,
2013-08-24 12:13:00,76.6,56.7,29.80,South,172,3.0,5.0,50,0.00,,,0.00,meteohub,2013-08-24 19:13:00,
2013-08-24 12:18:00,77.2,56.5,29.80,SW,236,2.0,5.0,49,0.00,,,0.00,meteohub,2013-08-24 19:18:00,
2013-08-24 12:23:00,77.7,57.6,29.80,WSW,237,2.0,5.0,50,0.00,,,0.00,meteohub,2013-08-24 19:23:00,
2013-08-24 12:28:00,78.8,57.4,29.80,West,259,2.0,5.0,48,0.00,,,0.00,meteohub,2013-08-24 19:28:00,
2013-08-24 12:33:00,79.0,57.6,29.80,West,277,3.0,7.0,48,0.00,,,0.00,meteohub,2013-08-24 19:33:00,
2013-08-24 12:38:00,79.0,58.1,29.79,SW,221,2.0,6.0,49,0.00,,,0.00,meteohub,2013-08-24 19:38:00,
2013-08-24 12:43:00,80.1,57.4,29.79,SW,225,2.0,6.0,46,0.00,,,0.00,meteohub,2013-08-24 19:43:00,
2013-08-24 12:48:00,80.1,58.1,29.79,South,180,3.0,6.0,47,0.00,,,0.00,meteohub,2013-08-24 19:48:00,
2013-08-24 12:53:00,80.4,58.3,29.79,WSW,245,6.0,6.0,47,0.00,,,0.00,meteohub,2013-08-24 19:53:00,
2013-08-24 12:58:00,80.1,58.6,29.79,SW,233,2.0,10.0,48,0.00,,,0.00,meteohub,2013-08-24 19:58:00,
2013-08-24 13:03:00,79.3,58.5,29.79,SW,233,9.0,11.0,49,0.00,,,0.00,meteohub,2013-08-24 20:03:00,
2013-08-24 13:08:00,78.6,58.5,29.79,South,188,2.0,11.0,50,0.00,,,0.00,meteohub,2013-08-24 20:08:00,
2013-08-24 13:13:00,78.6,58.5,29.79,South,190,3.0,14.0,50,0.00,,,0.00,meteohub,2013-08-24 20:13:00,
2013-08-24 13:18:00,78.6,58.5,29.79,WSW,254,10.0,14.0,50,0.00,,,0.00,meteohub,2013-08-24 20:18:00,
2013-08-24 13:23:00,78.3,58.6,29.79,South,179,3.0,10.0,51,0.00,,,0.00,meteohub,2013-08-24 20:23:00,
2013-08-24 13:28:00,78.4,58.8,29.79,South,191,1.0,12.0,51,0.00,,,0.00,meteohub,2013-08-24 20:28:00,
2013-08-24 13:33:00,79.2,59.0,29.79,SSE,152,3.0,12.0,50,0.00,,,0.00,meteohub,2013-08-24 20:33:00,
2013-08-24 13:38:00,79.3,58.5,29.79,SW,227,7.0,12.0,49,0.00,,,0.00,meteohub,2013-08-24 20:38:00,
2013-08-24 13:43:00,78.8,58.1,29.79,SSW,207,5.0,11.0,49,0.00,,,0.00,meteohub,2013-08-24 20:43:00,
2013-08-24 13:48:00,79.0,58.8,29.79,SSE,168,3.0,13.0,50,0.00,,,0.00,meteohub,2013-08-24 20:48:00,
2013-08-24 13:53:00,79.5,59.2,29.78,South,182,2.0,13.0,50,0.00,,,0.00,meteohub,2013-08-24 20:53:00,
2013-08-24 13:58:00,80.4,59.5,29.78,SW,227,4.0,7.0,49,0.00,,,0.00,meteohub,2013-08-24 20:58:00,
2013-08-24 14:04:00,81.0,60.1,29.78,SSW,203,2.0,7.0,49,0.00,,,0.00,meteohub,2013-08-24 21:04:00,
2013-08-24 14:09:00,81.3,59.2,29.78,ESE,111,3.0,7.0,47,0.00,,,0.00,meteohub,2013-08-24 21:09:00,
2013-08-24 14:14:00,81.7,58.8,29.78,West,272,2.0,6.0,46,0.00,,,0.00,meteohub,2013-08-24 21:14:00,
2013-08-24 14:19:00,81.7,58.8,29.78,SW,217,1.0,9.0,46,0.00,,,0.00,meteohub,2013-08-24 21:19:00,
2013-08-24 14:24:00,81.7,58.8,29.78,WSW,242,5.0,9.0,46,0.00,,,0.00,meteohub,2013-08-24 21:24:00,
2013-08-24 14:29:00,80.6,58.5,29.78,SSW,205,5.0,10.0,47,0.00,,,0.00,meteohub,2013-08-24 21:29:00,
2013-08-24 14:34:00,79.5,58.6,29.78,SSW,206,4.0,11.0,49,0.00,,,0.00,meteohub,2013-08-24 21:34:00,
2013-08-24 14:39:00,79.3,59.0,29.78,South,172,2.0,11.0,50,0.00,,,0.00,meteohub,2013-08-24 21:39:00,
2013-08-24 14:44:00,79.0,58.8,29.78,SSE,167,12.0,12.0,50,0.00,,,0.00,meteohub,2013-08-24 21:44:00,
2013-08-24 14:49:00,79.0,58.8,29.78,SSE,167,5.0,12.0,50,0.00,,,0.00,meteohub,2013-08-24 21:49:00,
2013-08-24 14:54:00,79.2,59.0,29.78,NW,322,2.0,12.0,50,0.00,,,0.00,meteohub,2013-08-24 21:54:00,
2013-08-24 14:59:00,78.6,58.5,29.78,SW,217,4.0,11.0,50,0.00,,,0.00,meteohub,2013-08-24 21:59:00,
2013-08-24 15:04:00,79.0,58.8,29.78,SW,221,3.0,11.0,50,0.00,,,0.00,meteohub,2013-08-24 22:04:00,
2013-08-24 15:09:00,78.6,59.0,29.78,WNW,284,2.0,10.0,51,0.00,,,0.00,meteohub,2013-08-24 22:09:00,
2013-08-24 15:14:00,79.2,59.0,29.78,South,179,10.0,12.0,50,0.00,,,0.00,meteohub,2013-08-24 22:14:00,
2013-08-24 15:19:00,79.0,59.4,29.78,SSW,192,7.0,12.0,51,0.00,,,0.00,meteohub,2013-08-24 22:19:00,
2013-08-24 15:24:00,79.0,59.4,29.78,SE,146,4.0,11.0,51,0.00,,,0.00,meteohub,2013-08-24 22:24:00,
2013-08-24 15:29:00,79.2,59.5,29.78,SE,133,4.0,10.0,51,0.00,,,0.00,meteohub,2013-08-24 22:29:00,
2013-08-24 15:34:00,79.0,59.4,29.78,SSE,157,5.0,10.0,51,0.00,,,0.00,meteohub,2013-08-24 22:34:00,
2013-08-24 15:39:00,78.3,59.2,29.78,SSE,168,3.0,10.0,52,0.00,,,0.00,meteohub,2013-08-24 22:39:00,
2013-08-24 15:44:00,78.4,58.8,29.78,South,173,6.0,10.0,51,0.00,,,0.00,meteohub,2013-08-24 22:44:00,
2013-08-24 15:49:00,79.0,59.4,29.78,SE,141,3.0,10.0,51,0.00,,,0.00,meteohub,2013-08-24 22:49:00,
2013-08-24 15:54:00,79.0,58.8,29.78,SSE,168,6.0,10.0,50,0.00,,,0.00,meteohub,2013-08-24 22:54:00,
2013-08-24 15:59:00,78.4,58.8,29.78,SE,126,2.0,10.0,51,0.00,,,0.00,meteohub,2013-08-24 22:59:00,
2013-08-24 16:04:00,78.4,59.4,29.78,SW,230,2.0,10.0,52,0.00,,,0.00,meteohub,2013-08-24 23:04:00,
2013-08-24 16:10:00,78.4,58.8,29.78,SW,217,3.0,9.0,51,0.00,,,0.00,meteohub,2013-08-24 23:10:00,
2013-08-24 16:15:00,78.4,58.8,29.78,SSE,165,3.0,11.0,51,0.00,,,0.00,meteohub,2013-08-24 23:15:00,
2013-08-24 16:20:00,78.3,58.6,29.78,East,101,5.0,11.0,51,0.00,,,0.00,meteohub,2013-08-24 23:20:00,
2013-08-24 16:25:00,78.3,59.2,29.78,South,178,6.0,9.0,52,0.00,,,0.00,meteohub,2013-08-24 23:25:00,
2013-08-24 16:30:00,77.9,58.8,29.78,South,188,11.0,11.0,52,0.00,,,0.00,meteohub,2013-08-24 23:30:00,
2013-08-24 16:35:00,77.4,58.8,29.78,South,176,4.0,12.0,53,0.00,,,0.00,meteohub,2013-08-24 23:35:00,
2013-08-24 16:40:00,77.4,58.8,29.78,SSE,155,5.0,12.0,53,0.00,,,0.00,meteohub,2013-08-24 23:40:00,
2013-08-24 16:45:00,76.8,58.5,29.78,WNW,298,2.0,12.0,53,0.00,,,0.00,meteohub,2013-08-24 23:45:00,
2013-08-24 16:50:00,77.0,58.6,29.78,ESE,119,5.0,11.0,53,0.00,,,0.00,meteohub,2013-08-24 23:50:00,
2013-08-24 16:55:00,77.4,59.4,29.78,SSE,161,2.0,10.0,54,0.00,,,0.00,meteohub,2013-08-24 23:55:00,
2013-08-24 17:00:00,78.1,59.0,29.78,SW,220,1.0,10.0,52,0.00,,,0.00,meteohub,2013-08-25 00:00:00,
2013-08-24 17:05:00,77.7,58.6,29.78,SE,134,1.0,7.0,52,0.00,,,0.00,meteohub,2013-08-25 00:05:00,
2013-08-24 17:10:00,77.5,59.0,29.78,SE,134,4.0,7.0,53,0.00,,,0.00,meteohub,2013-08-25 00:10:00,
2013-08-24 17:15:00,77.0,59.0,29.78,SW,223,3.0,7.0,54,0.00,,,0.00,meteohub,2013-08-25 00:15:00,
2013-08-24 17:20:00,75.9,58.6,29.78,SSE,161,1.0,9.0,55,0.00,,,0.00,meteohub,2013-08-25 00:20:00,
2013-08-24 17:25:00,75.4,58.6,29.78,SW,227,6.0,11.0,56,0.00,,,0.00,meteohub,2013-08-25 00:25:00,
2013-08-24 17:30:00,75.4,59.0,29.78,South,188,3.0,11.0,57,0.00,,,0.00,meteohub,2013-08-25 00:30:00,
2013-08-24 17:35:00,75.6,58.8,29.78,SSE,165,7.0,10.0,56,0.00,,,0.00,meteohub,2013-08-25 00:35:00,
2013-08-24 17:40:00,75.7,59.4,29.78,South,183,4.0,10.0,57,0.00,,,0.00,meteohub,2013-08-25 00:40:00,
2013-08-24 17:45:00,76.3,59.0,29.78,SW,223,1.0,7.0,55,0.00,,,0.00,meteohub,2013-08-25 00:45:00,
2013-08-24 17:50:00,76.6,59.2,29.78,SSW,199,6.0,6.0,55,0.00,,,0.00,meteohub,2013-08-25 00:50:00,
2013-08-24 17:55:00,76.3,59.4,29.78,SW,235,2.0,7.0,56,0.00,,,0.00,meteohub,2013-08-25 00:55:00,
2013-08-24 18:00:00,75.4,58.6,29.78,SE,133,2.0,7.0,56,0.00,,,0.00,meteohub,2013-08-25 01:00:00,
2013-08-24 18:06:00,75.4,58.6,29.78,SW,221,2.0,9.0,56,0.00,,,0.00,meteohub,2013-08-25 01:06:00,
2013-08-24 18:11:00,75.2,59.0,29.78,SSW,213,2.0,10.0,57,0.00,,,0.00,meteohub,2013-08-25 01:11:00,
2013-08-24 18:16:00,74.8,58.6,29.78,SSW,200,3.0,10.0,57,0.00,,,0.00,meteohub,2013-08-25 01:16:00,
2013-08-24 18:21:00,74.5,58.3,29.78,SSW,211,1.0,10.0,57,0.00,,,0.00,meteohub,2013-08-25 01:21:00,
2013-08-24 18:26:00,73.9,58.6,29.78,SW,221,1.0,10.0,59,0.00,,,0.00,meteohub,2013-08-25 01:26:00,
2013-08-24 18:31:00,73.9,58.6,29.78,South,187,4.0,6.0,59,0.00,,,0.00,meteohub,2013-08-25 01:31:00,
2013-08-24 18:36:00,73.8,58.5,29.78,SSE,159,4.0,7.0,59,0.00,,,0.00,meteohub,2013-08-25 01:36:00,
2013-08-24 18:41:00,74.3,58.6,29.78,SSW,202,3.0,7.0,58,0.00,,,0.00,meteohub,2013-08-25 01:41:00,
2013-08-24 18:46:00,73.9,58.6,29.78,ESE,103,2.0,7.0,59,0.00,,,0.00,meteohub,2013-08-25 01:46:00,
2013-08-24 18:51:00,73.6,58.3,29.78,South,190,2.0,6.0,59,0.00,,,0.00,meteohub,2013-08-25 01:51:00,
2013-08-24 18:56:00,73.2,58.5,29.78,WSW,244,1.0,5.0,60,0.00,,,0.00,meteohub,2013-08-25 01:56:00,
2013-08-24 19:01:00,73.0,58.3,29.78,South,176,2.0,5.0,60,0.00,,,0.00,meteohub,2013-08-25 02:01:00,
2013-08-24 19:06:00,72.1,57.9,29.78,SW,221,1.0,10.0,61,0.00,,,0.00,meteohub,2013-08-25 02:06:00,
2013-08-24 19:11:00,71.4,57.7,29.78,WSW,252,1.0,10.0,62,0.00,,,0.00,meteohub,2013-08-25 02:11:00,
2013-08-24 19:16:00,70.9,58.1,29.78,WSW,254,2.0,7.0,64,0.00,,,0.00,meteohub,2013-08-25 02:16:00,
2013-08-24 19:21:00,70.3,57.6,29.79,South,183,1.0,4.0,64,0.00,,,0.00,meteohub,2013-08-25 02:21:00,
2013-08-24 19:26:00,70.0,58.1,29.79,South,188,1.0,4.0,66,0.00,,,0.00,meteohub,2013-08-25 02:26:00,
2013-08-24 19:31:00,69.4,57.6,29.79,SSW,211,0.0,4.0,66,0.00,,,0.00,meteohub,2013-08-25 02:31:00,
2013-08-24 19:36:00,68.9,57.6,29.79,SSW,209,0.0,4.0,67,0.00,,,0.00,meteohub,2013-08-25 02:36:00,
2013-08-24 19:41:00,68.4,57.7,29.79,SSW,194,1.0,3.0,69,0.00,,,0.00,meteohub,2013-08-25 02:41:00,
2013-08-24 19:46:00,67.6,57.6,29.79,WSW,254,1.0,3.0,70,0.00,,,0.00,meteohub,2013-08-25 02:46:00,
2013-08-24 19:51:00,67.3,57.2,29.80,SSW,202,2.0,4.0,70,0.00,,,0.00,meteohub,2013-08-25 02:51:00,
2013-08-24 19:56:00,66.7,57.0,29.80,SW,227,3.0,5.0,71,0.00,,,0.00,meteohub,2013-08-25 02:56:00,
2013-08-24 20:02:00,66.4,57.0,29.80,SW,229,1.0,5.0,72,0.00,,,0.00,meteohub,2013-08-25 03:02:00,
2013-08-24 20:07:00,66.0,57.2,29.80,West,271,2.0,3.0,73,0.00,,,0.00,meteohub,2013-08-25 03:07:00,
2013-08-24 20:12:00,65.7,56.8,29.80,West,261,0.0,3.0,73,0.00,,,0.00,meteohub,2013-08-25 03:12:00,
2013-08-24 20:17:00,65.3,56.8,29.80,SW,222,3.0,3.0,74,0.00,,,0.00,meteohub,2013-08-25 03:17:00,
2013-08-24 20:22:00,64.9,56.8,29.80,West,271,1.0,4.0,75,0.00,,,0.00,meteohub,2013-08-25 03:22:00,
2013-08-24 20:27:00,64.4,56.3,29.80,West,271,1.0,4.0,75,0.00,,,0.00,meteohub,2013-08-25 03:27:00,
2013-08-24 20:32:00,64.0,56.3,29.80,West,260,1.0,2.0,76,0.00,,,0.00,meteohub,2013-08-25 03:32:00,
2013-08-24 20:37:00,63.9,56.5,29.80,West,269,2.0,2.0,77,0.00,,,0.00,meteohub,2013-08-25 03:37:00,
2013-08-24 20:42:00,63.7,56.3,29.80,West,263,1.0,2.0,77,0.00,,,0.00,meteohub,2013-08-25 03:42:00,
2013-08-24 20:47:00,63.5,56.5,29.80,West,275,0.0,2.0,78,0.00,,,0.00,meteohub,2013-08-25 03:47:00,
2013-08-24 20:52:00,63.3,56.3,29.81,West,275,1.0,3.0,78,0.00,,,0.00,meteohub,2013-08-25 03:52:00,
2013-08-24 20:57:00,63.1,56.1,29.81,West,275,0.0,3.0,78,0.00,,,0.00,meteohub,2013-08-25 03:57:00,
2013-08-24 21:01:00,63.1,56.5,29.81,West,275,1.0,2.0,79,0.00,,,0.00,meteohub,2013-08-25 04:01:00,
2013-08-24 21:03:00,63.1,56.5,29.81,West,277,0.0,2.0,79,0.00,,,0.00,meteohub,2013-08-25 04:03:00,
2013-08-24 21:07:00,63.0,56.3,29.81,West,275,1.0,2.0,79,0.00,,,0.00,meteohub,2013-08-25 04:07:00,
2013-08-24 21:10:00,63.0,56.3,29.81,West,275,0.0,2.0,79,0.00,,,0.00,meteohub,2013-08-25 04:10:00,
2013-08-24 21:15:00,63.0,56.3,29.81,West,275,1.0,2.0,79,0.00,,,0.00,meteohub,2013-08-25 04:15:00,
2013-08-24 21:20:00,62.8,56.5,29.81,West,277,0.0,2.0,80,0.00,,,0.00,meteohub,2013-08-25 04:20:00,
2013-08-24 21:25:00,62.8,56.5,29.81,West,277,1.0,2.0,80,0.00,,,0.00,meteohub,2013-08-25 04:25:00,
2013-08-24 21:30:00,62.8,56.5,29.81,West,277,1.0,2.0,80,0.00,,,0.00,meteohub,2013-08-25 04:30:00,
2013-08-24 21:35:00,62.8,56.5,29.81,NNW,331,0.0,3.0,80,0.00,,,0.00,meteohub,2013-08-25 04:35:00,
2013-08-24 21:40:00,62.6,56.3,29.82,NNW,331,0.0,3.0,80,0.00,,,0.00,meteohub,2013-08-25 04:40:00,
2013-08-24 21:45:00,62.6,56.3,29.82,NNW,328,1.0,3.0,80,0.00,,,0.00,meteohub,2013-08-25 04:45:00,
2013-08-24 21:50:00,62.6,56.3,29.82,NNW,328,0.0,2.0,80,0.00,,,0.00,meteohub,2013-08-25 04:50:00,
2013-08-24 21:55:00,62.4,56.5,29.83,West,275,0.0,2.0,81,0.00,,,0.00,meteohub,2013-08-25 04:55:00,
2013-08-24 22:00:00,62.4,56.5,29.83,West,275,0.0,1.0,81,0.00,,,0.00,meteohub,2013-08-25 05:00:00,
2013-08-24 22:05:00,62.2,56.3,29.83,NW,306,0.0,1.0,81,0.00,,,0.00,meteohub,2013-08-25 05:05:00,
2013-08-24 22:10:00,62.2,56.3,29.83,NW,304,1.0,2.0,81,0.00,,,0.00,meteohub,2013-08-25 05:10:00,
2013-08-24 22:15:00,62.2,56.3,29.83,NW,304,1.0,2.0,81,0.00,,,0.00,meteohub,2013-08-25 05:15:00,
2013-08-24 22:20:00,62.1,56.1,29.83,NW,318,1.0,2.0,81,0.00,,,0.00,meteohub,2013-08-25 05:20:00,
2013-08-24 22:25:00,62.1,56.1,29.83,NW,315,0.0,2.0,81,0.00,,,0.00,meteohub,2013-08-25 05:25:00,
2013-08-24 22:30:00,61.9,56.3,29.83,NW,311,3.0,3.0,82,0.00,,,0.00,meteohub,2013-08-25 05:30:00,
2013-08-24 22:36:00,61.9,56.3,29.83,WNW,294,1.0,3.0,82,0.00,,,0.00,meteohub,2013-08-25 05:36:00,
2013-08-24 22:41:00,61.9,56.3,29.82,WNW,299,1.0,3.0,82,0.00,,,0.00,meteohub,2013-08-25 05:41:00,
2013-08-24 22:46:00,61.9,56.3,29.82,NW,312,1.0,2.0,82,0.00,,,0.00,meteohub,2013-08-25 05:46:00,
2013-08-24 22:51:00,61.9,56.3,29.82,WNW,299,1.0,2.0,82,0.00,,,0.00,meteohub,2013-08-25 05:51:00,
2013-08-24 22:56:00,61.9,56.3,29.82,WNW,299,0.0,2.0,82,0.00,,,0.00,meteohub,2013-08-25 05:56:00,
2013-08-24 23:01:00,61.5,55.9,29.82,West,259,1.0,2.0,82,0.00,,,0.00,meteohub,2013-08-25 06:01:00,
2013-08-24 23:06:00,61.3,55.8,29.82,West,261,1.0,2.0,82,0.00,,,0.00,meteohub,2013-08-25 06:06:00,
2013-08-24 23:11:00,61.3,56.1,29.83,West,261,0.0,2.0,83,0.00,,,0.00,meteohub,2013-08-25 06:11:00,
2013-08-24 23:16:00,61.2,55.9,29.83,West,261,0.0,1.0,83,0.00,,,0.00,meteohub,2013-08-25 06:16:00,
2013-08-24 23:21:00,61.2,55.9,29.82,West,261,1.0,1.0,83,0.00,,,0.00,meteohub,2013-08-25 06:21:00,
2013-08-24 23:26:00,61.2,55.9,29.82,West,261,0.0,1.0,83,0.00,,,0.00,meteohub,2013-08-25 06:26:00,
2013-08-24 23:31:00,61.2,56.3,29.82,West,261,0.0,1.0,84,0.00,,,0.00,meteohub,2013-08-25 06:31:00,
2013-08-24 23:36:00,60.8,55.9,29.82,West,261,0.0,1.0,84,0.00,,,0.00,meteohub,2013-08-25 06:36:00,
2013-08-24 23:41:00,60.6,55.8,29.82,West,261,0.0,1.0,84,0.00,,,0.00,meteohub,2013-08-25 06:41:00,
2013-08-24 23:46:00,60.6,56.1,29.82,West,261,0.0,1.0,85,0.00,,,0.00,meteohub,2013-08-25 06:46:00,
2013-08-24 23:51:00,60.6,56.1,29.81,West,261,0.0,1.0,85,0.00,,,0.00,meteohub,2013-08-25 06:51:00,
2013-08-24 23:56:00,60.6,56.1,29.81,West,261,0.0,1.0,85,0.00,,,0.00,meteohub,2013-08-25 06:56:00,